Time;durP1;ratioP1;P1;durP2;ratioP2;P2;SDS_P1;SDS_P2;PMS_P1;PMS_P2;Temp;Humidity;BMP_temperature;BMP_pressure;BME280_temperature;BME280_humidity;BME280_pressure;Samples;Min_cycle;Max_cycle;Signal;HPM_P1;HPM_P2
2021/05/08 00:02:02;;;;;;;8.10;7.30;;;;;;;;;;4971564;28;20185;-75
2021/05/08 00:04:28;;;;;;;8.82;7.15;;;;;;;;;;4972061;28;20187;-76
2021/05/08 00:06:56;;;;;;;10.13;9.15;;;;;;;;;;4971267;28;20276;-75
2021/05/08 00:09:22;;;;;;;8.25;7.45;;;;;;;;;;4971324;28;20184;-77
2021/05/08 00:11:48;;;;;;;7.63;6.78;;;;;;;;;;4971863;28;20220;-75
2021/05/08 00:14:14;;;;;;;6.87;6.23;;;;;;;;;;4972023;28;20183;-75
2021/05/08 00:16:40;;;;;;;9.03;7.73;;;;;;;;;;4971932;28;20837;-75
2021/05/08 00:19:06;;;;;;;7.77;7.00;;;;;;;;;;4964415;28;20449;-76
2021/05/08 00:21:32;;;;;;;8.33;7.50;;;;;;;;;;4969537;28;20457;-74
2021/05/08 00:23:58;;;;;;;8.23;6.70;;;;;;;;;;4970274;28;20446;-77
2021/05/08 00:26:24;;;;;;;9.77;7.90;;;;;;;;;;4972300;28;20824;-75
2021/05/08 00:28:52;;;;;;;9.60;8.13;;;;;;;;;;4971827;28;20218;-74
2021/05/08 00:31:18;;;;;;;9.73;7.68;;;;;;;;;;4971838;28;20448;-76
2021/05/08 00:33:44;;;;;;;8.98;7.20;;;;;;;;;;4972721;28;20207;-73
2021/05/08 00:36:10;;;;;;;10.63;7.67;;;;;;;;;;4970798;28;20232;-75
2021/05/08 00:38:36;;;;;;;11.10;8.50;;;;;;;;;;4971161;28;20457;-75
2021/05/08 00:41:02;;;;;;;13.53;7.70;;;;;;;;;;4970914;28;20436;-76
2021/05/08 00:43:28;;;;;;;9.82;7.60;;;;;;;;;;4971081;28;20454;-76
2021/05/08 00:45:54;;;;;;;8.60;7.30;;;;;;;;;;4963256;28;20275;-77
2021/05/08 00:48:20;;;;;;;9.53;7.20;;;;;;;;;;4970618;28;20794;-76
2021/05/08 00:50:49;;;;;;;7.47;6.72;;;;;;;;;;4967679;28;20440;-75
2021/05/08 00:53:16;;;;;;;7.35;6.65;;;;;;;;;;4971378;28;20210;-76
2021/05/08 00:55:42;;;;;;;8.90;6.88;;;;;;;;;;4970307;28;20273;-75
2021/05/08 00:58:08;;;;;;;9.00;6.90;;;;;;;;;;4970759;28;20275;-78
2021/05/08 01:00:34;;;;;;;6.30;5.70;;;;;;;;;;4965226;28;20436;-75
2021/05/08 01:03:01;;;;;;;6.88;5.85;;;;;;;;;;4970513;28;20194;-76
2021/05/08 01:05:31;;;;;;;6.93;6.18;;;;;;;;;;4972864;28;20275;-76
2021/05/08 01:07:57;;;;;;;7.70;5.75;;;;;;;;;;4969259;28;20626;-77
2021/05/08 01:10:23;;;;;;;7.50;6.27;;;;;;;;;;4976207;28;20199;-76
2021/05/08 01:12:49;;;;;;;6.18;5.57;;;;;;;;;;4975991;28;20444;-77
2021/05/08 01:15:16;;;;;;;5.63;5.13;;;;;;;;;;4976816;28;20267;-77
2021/05/08 01:17:42;;;;;;;5.70;4.90;;;;;;;;;;4976335;28;20481;-74
2021/05/08 01:20:09;;;;;;;5.65;5.15;;;;;;;;;;4961762;28;20174;-76
2021/05/08 01:22:36;;;;;;;6.60;6.00;;;;;;;;;;4972920;28;20204;-76
2021/05/08 01:25:03;;;;;;;7.13;5.20;;;;;;;;;;4975452;28;20184;-75
2021/05/08 01:27:29;;;;;;;5.90;4.72;;;;;;;;;;4974495;28;20189;-75
2021/05/08 01:29:55;;;;;;;7.00;5.30;;;;;;;;;;4975530;28;20197;-76
2021/05/08 01:32:21;;;;;;;6.37;5.70;;;;;;;;;;4975471;28;20527;-76
2021/05/08 01:34:47;;;;;;;5.90;4.90;;;;;;;;;;4975095;28;20529;-77
2021/05/08 01:37:14;;;;;;;7.40;6.30;;;;;;;;;;4974587;28;20477;-77
2021/05/08 01:39:40;;;;;;;6.00;5.45;;;;;;;;;;4975291;28;20825;-75
2021/05/08 01:42:06;;;;;;;6.50;5.90;;;;;;;;;;4975962;28;20188;-74
2021/05/08 01:44:32;;;;;;;5.85;5.32;;;;;;;;;;4973862;28;20201;-75
2021/05/08 01:46:58;;;;;;;7.00;5.80;;;;;;;;;;4971185;28;20272;-74
2021/05/08 01:49:24;;;;;;;6.50;5.90;;;;;;;;;;4972479;28;20430;-73
2021/05/08 01:51:50;;;;;;;10.63;6.88;;;;;;;;;;4974939;28;20486;-75
2021/05/08 01:57:19;;;;;;;10.00;6.38;;;;;;;;;;4975993;28;20235;-75
2021/05/08 01:59:45;;;;;;;7.03;5.20;;;;;;;;;;4975555;28;20179;-74
2021/05/08 02:02:11;;;;;;;6.13;5.57;;;;;;;;;;4976117;28;20426;-76
2021/05/08 02:04:37;;;;;;;6.47;5.43;;;;;;;;;;4975754;28;20415;-75
2021/05/08 02:07:03;;;;;;;9.33;6.70;;;;;;;;;;4974762;28;20470;-76
2021/05/08 02:12:34;;;;;;;9.30;6.65;;;;;;;;;;4976101;28;20178;-74
2021/05/08 02:15:00;;;;;;;10.20;6.60;;;;;;;;;;4975069;28;20520;-74
2021/05/08 02:17:26;;;;;;;6.40;5.80;;;;;;;;;;4974563;28;20524;-76
2021/05/08 02:19:52;;;;;;;7.15;6.45;;;;;;;;;;4975236;28;20168;-75
2021/05/08 02:22:18;;;;;;;9.05;5.88;;;;;;;;;;4976047;28;20176;-73
2021/05/08 02:27:48;;;;;;;6.80;5.80;;;;;;;;;;4975423;28;20228;-75
2021/05/08 02:30:15;;;;;;;6.15;5.57;;;;;;;;;;4975326;28;20172;-74
2021/05/08 02:32:41;;;;;;;5.95;5.35;;;;;;;;;;4975275;28;20222;-76
2021/05/08 02:35:08;;;;;;;6.57;5.18;;;;;;;;;;4975072;28;20172;-76
2021/05/08 02:37:34;;;;;;;6.82;5.90;;;;;;;;;;4974772;28;20269;-75
2021/05/08 02:43:05;;;;;;;7.28;5.07;;;;;;;;;;4975282;28;20194;-77
2021/05/08 02:45:31;;;;;;;6.88;6.18;;;;;;;;;;4975067;28;20638;-77
2021/05/08 02:47:57;;;;;;;7.53;5.25;;;;;;;;;;4974840;28;20186;-77
2021/05/08 02:50:23;;;;;;;6.07;5.47;;;;;;;;;;4974930;28;20175;-76
2021/05/08 02:52:49;;;;;;;7.38;6.20;;;;;;;;;;4974695;28;20754;-73
2021/05/08 02:55:16;;;;;;;8.15;5.90;;;;;;;;;;4975016;28;20172;-76
2021/05/08 02:57:42;;;;;;;6.32;5.80;;;;;;;;;;4974699;28;20297;-78
2021/05/08 03:00:09;;;;;;;9.43;6.13;;;;;;;;;;4974694;28;20171;-75
2021/05/08 03:02:36;;;;;;;21.05;14.35;;;;;;;;;;4974566;28;20175;-76
2021/05/08 03:05:02;;;;;;;16.10;10.57;;;;;;;;;;4974892;28;20173;-77
2021/05/08 03:07:28;;;;;;;14.80;8.55;;;;;;;;;;4974716;28;20230;-76
2021/05/08 03:12:57;;;;;;;17.20;12.10;;;;;;;;;;4974659;28;20473;-77
2021/05/08 03:15:26;;;;;;;14.20;11.30;;;;;;;;;;4974668;28;20173;-77
2021/05/08 03:17:52;;;;;;;12.73;10.05;;;;;;;;;;4974161;28;20981;-77
2021/05/08 03:20:18;;;;;;;17.33;10.97;;;;;;;;;;4957243;28;20174;-78
2021/05/08 03:22:44;;;;;;;16.17;10.73;;;;;;;;;;4974189;28;20490;-75
2021/05/08 03:28:14;;;;;;;8.55;7.05;;;;;;;;;;4974082;28;20481;-76
2021/05/08 03:30:39;;;;;;;10.10;7.72;;;;;;;;;;4974096;28;20230;-76
2021/05/08 03:33:05;;;;;;;12.50;7.07;;;;;;;;;;4974112;28;20573;-76
2021/05/08 03:35:31;;;;;;;7.50;6.70;;;;;;;;;;4974151;28;20415;-76
2021/05/08 03:37:57;;;;;;;7.83;6.57;;;;;;;;;;4974004;28;20238;-75
2021/05/08 03:43:27;;;;;;;11.70;7.03;;;;;;;;;;4973972;28;20418;-78
2021/05/08 03:45:53;;;;;;;12.00;9.30;;;;;;;;;;4974068;28;20531;-76
2021/05/08 03:48:19;;;;;;;9.20;7.43;;;;;;;;;;4974293;28;20414;-76
2021/05/08 03:50:46;;;;;;;10.07;7.93;;;;;;;;;;4973867;28;20524;-76
2021/05/08 03:53:12;;;;;;;10.75;7.80;;;;;;;;;;4974094;28;20843;-77
2021/05/08 03:55:39;;;;;;;9.68;6.95;;;;;;;;;;4974017;28;20168;-77
2021/05/08 03:58:06;;;;;;;13.02;8.63;;;;;;;;;;4974122;28;20182;-76
2021/05/08 04:00:32;;;;;;;12.05;8.15;;;;;;;;;;4973472;28;20249;-76
2021/05/08 04:02:58;;;;;;;10.95;8.23;;;;;;;;;;4973848;28;20171;-76
2021/05/08 04:05:24;;;;;;;7.93;7.07;;;;;;;;;;4973427;28;20179;-76
2021/05/08 04:07:50;;;;;;;7.27;6.13;;;;;;;;;;4977646;28;20313;-76
2021/05/08 04:13:19;;;;;;;5.50;4.95;;;;;;;;;;4973057;28;20465;-78
2021/05/08 04:15:46;;;;;;;6.30;5.65;;;;;;;;;;4972811;28;20167;-77
2021/05/08 04:18:12;;;;;;;7.93;6.30;;;;;;;;;;4973151;28;20172;-76
2021/05/08 04:20:38;;;;;;;6.25;4.85;;;;;;;;;;4973214;28;20701;-76
2021/05/08 04:23:05;;;;;;;7.03;5.90;;;;;;;;;;4972548;28;20183;-74
2021/05/08 04:28:34;;;;;;;8.23;5.95;;;;;;;;;;4973276;28;20586;-76
2021/05/08 04:31:00;;;;;;;7.70;5.33;;;;;;;;;;4973159;28;20171;-77
2021/05/08 04:33:26;;;;;;;12.67;6.40;;;;;;;;;;4973166;28;20414;-75
2021/05/08 04:35:52;;;;;;;6.82;6.13;;;;;;;;;;4973022;28;20418;-78
2021/05/08 04:38:18;;;;;;;7.80;6.63;;;;;;;;;;4973005;28;20178;-75
2021/05/08 04:43:48;;;;;;;6.97;5.68;;;;;;;;;;4973005;28;20409;-76
2021/05/08 04:46:14;;;;;;;7.80;6.50;;;;;;;;;;4973436;28;20262;-76
2021/05/08 04:48:39;;;;;;;9.93;5.97;;;;;;;;;;4972888;28;20215;-77
2021/05/08 04:51:05;;;;;;;6.90;5.57;;;;;;;;;;4972588;28;20427;-76
2021/05/08 04:53:33;;;;;;;5.53;4.87;;;;;;;;;;4972783;28;20923;-77
2021/05/08 04:55:59;;;;;;;7.10;6.40;;;;;;;;;;4972876;28;20426;-77
2021/05/08 04:58:25;;;;;;;6.07;5.47;;;;;;;;;;4973247;28;20233;-75
2021/05/08 05:00:51;;;;;;;7.10;5.27;;;;;;;;;;4972830;28;20419;-75
2021/05/08 05:03:17;;;;;;;5.63;5.05;;;;;;;;;;4972439;28;20517;-75
2021/05/08 05:05:43;;;;;;;4.70;4.30;;;;;;;;;;4972937;28;20179;-76
2021/05/08 05:08:09;;;;;;;6.03;4.90;;;;;;;;;;4972769;28;20480;-73
2021/05/08 05:13:41;;;;;;;6.60;4.17;;;;;;;;;;4972800;28;20939;-77
2021/05/08 05:16:09;;;;;;;7.20;5.00;;;;;;;;;;4972598;28;21033;-75
2021/05/08 05:18:35;;;;;;;6.17;4.90;;;;;;;;;;4972639;28;20429;-76
2021/05/08 05:21:01;;;;;;;5.53;4.97;;;;;;;;;;4972534;28;20435;-76
2021/05/08 05:23:28;;;;;;;5.30;4.30;;;;;;;;;;4971353;28;20436;-75
2021/05/08 05:28:57;;;;;;;5.17;3.60;;;;;;;;;;4972844;28;20417;-76
2021/05/08 05:31:23;;;;;;;6.63;3.87;;;;;;;;;;4971008;28;20800;-75
2021/05/08 05:33:49;;;;;;;5.23;3.70;;;;;;;;;;4972430;28;20490;-75
2021/05/08 05:36:15;;;;;;;4.13;3.73;;;;;;;;;;4972220;28;20466;-75
2021/05/08 05:38:42;;;;;;;5.23;3.90;;;;;;;;;;4972532;28;20426;-77
2021/05/08 05:44:11;;;;;;;5.00;4.00;;;;;;;;;;4972560;28;20414;-76
2021/05/08 05:46:37;;;;;;;4.80;4.10;;;;;;;;;;4972564;28;20416;-76
2021/05/08 05:49:03;;;;;;;3.77;3.47;;;;;;;;;;4971686;28;20436;-75
2021/05/08 05:51:29;;;;;;;4.80;4.00;;;;;;;;;;4977237;28;20413;-75
2021/05/08 05:53:56;;;;;;;7.90;5.60;;;;;;;;;;4976458;28;20490;-77
2021/05/08 05:56:26;;;;;;;4.03;3.73;;;;;;;;;;4975826;28;20504;-76
2021/05/08 05:58:52;;;;;;;5.40;3.70;;;;;;;;;;4976059;28;20442;-74
2021/05/08 06:01:18;;;;;;;3.90;3.60;;;;;;;;;;4976067;28;20929;-73
2021/05/08 06:03:44;;;;;;;5.40;4.80;;;;;;;;;;4975788;28;20398;-75
2021/05/08 06:06:10;;;;;;;4.23;3.93;;;;;;;;;;4975913;28;20415;-77
2021/05/08 06:08:36;;;;;;;4.13;3.80;;;;;;;;;;4975519;28;20478;-77
2021/05/08 06:14:05;;;;;;;4.60;4.20;;;;;;;;;;4975546;28;20417;-74
2021/05/08 06:16:31;;;;;;;4.70;4.30;;;;;;;;;;4974837;28;20482;-74
2021/05/08 06:18:57;;;;;;;4.20;3.90;;;;;;;;;;4975289;28;20442;-75
2021/05/08 06:21:23;;;;;;;4.90;4.40;;;;;;;;;;4974933;28;20415;-75
2021/05/08 06:23:49;;;;;;;4.20;3.80;;;;;;;;;;4975097;28;20443;-75
2021/05/08 06:29:19;;;;;;;4.93;3.87;;;;;;;;;;4973962;28;20444;-76
2021/05/08 06:31:45;;;;;;;4.43;4.03;;;;;;;;;;4974381;28;20411;-74
2021/05/08 06:34:11;;;;;;;3.80;3.50;;;;;;;;;;4974800;28;20905;-75
2021/05/08 06:36:38;;;;;;;4.63;4.23;;;;;;;;;;4974695;28;20538;-75
2021/05/08 06:39:05;;;;;;;6.80;3.97;;;;;;;;;;4974040;28;20415;-74
2021/05/08 06:44:35;;;;;;;4.93;4.43;;;;;;;;;;4974423;28;21090;-76
2021/05/08 06:47:01;;;;;;;6.20;4.20;;;;;;;;;;4974829;28;20450;-73
2021/05/08 06:49:27;;;;;;;4.57;4.17;;;;;;;;;;4974727;28;20461;-73
2021/05/08 06:51:53;;;;;;;5.13;3.97;;;;;;;;;;4974104;28;20419;-76
2021/05/08 06:54:19;;;;;;;3.53;2.90;;;;;;;;;;4974738;28;20893;-75
2021/05/08 06:59:48;;;;;;;6.70;3.40;;;;;;;;;;4974460;28;20464;-77
2021/05/08 07:02:14;;;;;;;3.43;3.10;;;;;;;;;;4974373;28;20441;-77
2021/05/08 07:04:40;;;;;;;3.90;3.50;;;;;;;;;;4975182;28;20415;-77
2021/05/08 07:07:06;;;;;;;4.83;3.80;;;;;;;;;;4974593;28;20980;-77
2021/05/08 07:09:32;;;;;;;5.03;4.37;;;;;;;;;;4974697;28;20455;-74
2021/05/08 07:15:01;;;;;;;5.00;3.80;;;;;;;;;;4974306;28;20425;-77
2021/05/08 07:17:27;;;;;;;4.73;4.33;;;;;;;;;;4974161;28;20481;-75
2021/05/08 07:19:53;;;;;;;4.73;4.00;;;;;;;;;;4974128;28;20417;-76
2021/05/08 07:22:19;;;;;;;5.63;4.03;;;;;;;;;;4973520;28;20418;-76
2021/05/08 07:24:45;;;;;;;4.30;3.90;;;;;;;;;;4973200;28;20409;-76
2021/05/08 07:27:11;;;;;;;4.67;4.20;;;;;;;;;;4974061;28;20444;-76
2021/05/08 07:29:37;;;;;;;5.00;4.50;;;;;;;;;;4974087;28;20475;-78
2021/05/08 07:32:03;;;;;;;4.77;4.37;;;;;;;;;;4973639;28;20417;-75
2021/05/08 07:34:29;;;;;;;4.63;4.23;;;;;;;;;;4973687;28;20438;-76
2021/05/08 07:36:55;;;;;;;4.97;4.53;;;;;;;;;;4973831;28;20572;-76
2021/05/08 07:39:21;;;;;;;6.13;4.40;;;;;;;;;;4975276;28;20546;-75
2021/05/08 07:44:51;;;;;;;4.30;3.57;;;;;;;;;;4973721;28;20437;-76
2021/05/08 07:47:17;;;;;;;4.30;3.40;;;;;;;;;;4973669;28;20501;-74
2021/05/08 07:49:43;;;;;;;4.30;3.13;;;;;;;;;;4974001;28;20490;-74
2021/05/08 07:52:09;;;;;;;3.97;3.57;;;;;;;;;;4956083;28;20658;-75
2021/05/08 07:54:35;;;;;;;4.67;2.93;;;;;;;;;;4973722;28;20505;-73
2021/05/08 08:00:07;;;;;;;4.43;3.97;;;;;;;;;;4973198;28;20514;-76
2021/05/08 08:02:33;;;;;;;2.30;2.20;;;;;;;;;;4972836;28;20490;-76
2021/05/08 08:04:59;;;;;;;3.70;2.67;;;;;;;;;;4972822;28;20940;-77
2021/05/08 08:07:25;;;;;;;3.00;2.80;;;;;;;;;;4972522;28;20467;-76
2021/05/08 08:09:51;;;;;;;3.63;3.07;;;;;;;;;;4973263;28;20786;-75
2021/05/08 08:15:20;;;;;;;3.00;2.63;;;;;;;;;;4972909;28;20960;-73
2021/05/08 08:17:47;;;;;;;2.50;2.30;;;;;;;;;;4973107;28;20474;-75
2021/05/08 08:20:14;;;;;;;2.40;2.20;;;;;;;;;;4973016;28;20418;-75
2021/05/08 08:22:40;;;;;;;3.20;2.23;;;;;;;;;;4973130;28;20426;-76
2021/05/08 08:30:55;;;;;;;3.63;2.50;;;;;;;;;;4973028;28;20499;-75
2021/05/08 08:33:21;;;;;;;4.13;2.47;;;;;;;;;;4971476;28;20868;-74
2021/05/08 08:35:47;;;;;;;2.60;2.40;;;;;;;;;;4972873;28;20418;-75
2021/05/08 08:38:14;;;;;;;2.10;1.90;;;;;;;;;;4971467;28;20565;-74
2021/05/08 08:40:40;;;;;;;2.23;1.60;;;;;;;;;;4970970;28;20477;-75
2021/05/08 08:43:06;;;;;;;2.10;1.80;;;;;;;;;;4972759;28;20477;-74
2021/05/08 08:45:32;;;;;;;1.57;1.47;;;;;;;;;;4972710;28;20415;-75
2021/05/08 08:47:58;;;;;;;2.30;1.77;;;;;;;;;;4972820;28;20457;-76
2021/05/08 08:50:25;;;;;;;2.00;1.80;;;;;;;;;;4972606;28;20422;-75
2021/05/08 08:52:51;;;;;;;3.70;1.53;;;;;;;;;;4972493;28;20518;-75
2021/05/08 08:55:17;;;;;;;2.70;1.70;;;;;;;;;;4972373;28;20504;-74
2021/05/08 09:00:47;;;;;;;2.03;1.50;;;;;;;;;;4972700;28;20529;-76
2021/05/08 09:03:13;;;;;;;2.17;1.53;;;;;;;;;;4972477;28;20407;-78
2021/05/08 09:05:39;;;;;;;1.50;1.40;;;;;;;;;;4972665;28;20493;-77
2021/05/08 09:08:08;;;;;;;1.67;1.57;;;;;;;;;;4972808;28;20473;-75
2021/05/08 09:10:34;;;;;;;1.60;1.50;;;;;;;;;;4972854;28;20438;-75
2021/05/08 09:13:01;;;;;;;3.23;1.40;;;;;;;;;;4972660;28;20415;-76
2021/05/08 09:15:31;;;;;;;2.97;1.80;;;;;;;;;;4972183;28;20780;-76
2021/05/08 09:17:57;;;;;;;3.13;1.43;;;;;;;;;;4972063;28;20478;-76
2021/05/08 09:20:23;;;;;;;2.57;1.23;;;;;;;;;;4972378;28;20489;-77
2021/05/08 09:22:50;;;;;;;2.40;1.30;;;;;;;;;;4971737;28;20422;-77
2021/05/08 09:25:19;;;;;;;2.30;1.10;;;;;;;;;;4974191;28;20462;-76
2021/05/08 09:30:49;;;;;;;1.23;1.13;;;;;;;;;;4975873;28;20413;-73
2021/05/08 09:33:20;;;;;;;1.33;1.20;;;;;;;;;;4975757;28;20422;-75
2021/05/08 09:35:57;;;;;;;1.43;1.33;;;;;;;;;;4976338;28;20414;-78
2021/05/08 09:38:29;;;;;;;1.47;1.37;;;;;;;;;;4975813;28;20465;-75
2021/05/08 09:40:56;;;;;;;1.73;1.57;;;;;;;;;;4975197;28;20423;-72
2021/05/08 09:43:23;;;;;;;1.63;1.10;;;;;;;;;;4982725;28;20430;-72
2021/05/08 09:45:53;;;;;;;2.17;1.60;;;;;;;;;;4976101;28;20785;-72
2021/05/08 09:48:28;;;;;;;1.40;1.30;;;;;;;;;;4975954;28;20450;-74
2021/05/08 09:51:13;;;;;;;1.50;1.40;;;;;;;;;;4975907;28;20410;-72
2021/05/08 09:53:42;;;;;;;1.80;1.60;;;;;;;;;;4975345;28;20428;-73
2021/05/08 09:56:28;;;;;;;1.73;1.63;;;;;;;;;;4975475;28;20964;-75
2021/05/08 09:58:59;;;;;;;1.30;1.20;;;;;;;;;;4975673;28;20481;-74
2021/05/08 10:01:29;;;;;;;5.60;1.57;;;;;;;;;;4975308;28;20415;-75
2021/05/08 10:03:56;;;;;;;4.03;1.83;;;;;;;;;;4975345;28;20767;-72
2021/05/08 10:06:23;;;;;;;1.40;1.27;;;;;;;;;;4974226;28;20422;-71
2021/05/08 10:08:50;;;;;;;1.33;1.17;;;;;;;;;;4974185;28;20553;-73
2021/05/08 10:11:20;;;;;;;1.80;1.63;;;;;;;;;;4975046;28;20426;-72
2021/05/08 10:13:50;;;;;;;2.80;1.33;;;;;;;;;;4975193;28;20430;-73
2021/05/08 10:16:17;;;;;;;2.10;1.33;;;;;;;;;;4974800;28;20548;-72
2021/05/08 10:18:44;;;;;;;1.27;1.17;;;;;;;;;;4974663;28;20438;-76
2021/05/08 10:21:10;;;;;;;3.73;1.57;;;;;;;;;;4974823;28;20423;-76
2021/05/08 10:23:38;;;;;;;1.67;1.20;;;;;;;;;;4975130;28;20566;-74
2021/05/08 10:26:08;;;;;;;1.77;1.20;;;;;;;;;;4975328;28;20509;-73
2021/05/08 10:31:39;;;;;;;1.10;1.00;;;;;;;;;;4974805;28;20450;-73
2021/05/08 10:34:05;;;;;;;1.40;1.30;;;;;;;;;;4975136;28;20414;-73
2021/05/08 10:36:48;;;;;;;3.17;1.60;;;;;;;;;;4973731;28;20470;-72
2021/05/08 10:39:17;;;;;;;2.20;1.27;;;;;;;;;;4973397;28;20427;-72
2021/05/08 10:41:51;;;;;;;2.53;1.60;;;;;;;;;;4974386;28;20444;-72
2021/05/08 10:44:36;;;;;;;1.97;1.30;;;;;;;;;;4972660;28;20418;-71
2021/05/08 10:47:08;;;;;;;4.30;1.37;;;;;;;;;;4972555;28;20443;-71
2021/05/08 10:49:35;;;;;;;1.57;1.47;;;;;;;;;;4974101;28;20423;-72
2021/05/08 10:52:02;;;;;;;1.50;1.40;;;;;;;;;;4973764;28;20784;-73
2021/05/08 10:54:46;;;;;;;1.60;1.30;;;;;;;;;;4973824;28;20425;-71
2021/05/08 10:57:15;;;;;;;2.17;1.97;;;;;;;;;;4973346;28;20483;-73
2021/05/08 10:59:59;;;;;;;1.87;1.43;;;;;;;;;;4973474;28;20954;-75
2021/05/08 11:02:41;;;;;;;1.80;1.37;;;;;;;;;;4973060;28;20481;-73
2021/05/08 11:05:19;;;;;;;1.93;1.73;;;;;;;;;;4974491;28;20773;-74
2021/05/08 11:07:45;;;;;;;2.60;1.40;;;;;;;;;;4974053;28;20470;-75
2021/05/08 11:10:30;;;;;;;1.40;1.30;;;;;;;;;;4974376;28;20779;-74
2021/05/08 11:13:15;;;;;;;2.10;1.30;;;;;;;;;;4974431;28;20411;-76
2021/05/08 11:16:11;;;;;;;1.27;1.17;;;;;;;;;;4974362;28;20872;-74
2021/05/08 11:18:41;;;;;;;2.03;1.40;;;;;;;;;;4974112;28;20470;-74
2021/05/08 11:21:07;;;;;;;1.50;1.40;;;;;;;;;;4973712;28;20473;-74
2021/05/08 11:23:49;;;;;;;1.70;1.30;;;;;;;;;;4973608;28;20414;-72
2021/05/08 11:26:29;;;;;;;1.33;1.17;;;;;;;;;;4974235;28;20443;-72
2021/05/08 11:29:02;;;;;;;1.40;1.30;;;;;;;;;;4974636;28;20481;-73
2021/05/08 11:31:32;;;;;;;1.37;1.27;;;;;;;;;;4974381;28;20875;-73
2021/05/08 11:34:09;;;;;;;2.33;1.50;;;;;;;;;;4956759;28;20497;-73
2021/05/08 11:37:13;;;;;;;1.23;1.13;;;;;;;;;;4973755;28;21011;-71
2021/05/08 11:39:42;;;;;;;2.30;1.27;;;;;;;;;;4973931;28;20955;-72
2021/05/08 11:45:12;;;;;;;1.70;1.30;;;;;;;;;;4977732;28;20822;-72
2021/05/08 11:47:39;;;;;;;2.33;1.10;;;;;;;;;;4978460;28;20441;-72
2021/05/08 11:50:13;;;;;;;1.60;1.40;;;;;;;;;;4974433;28;20852;-73
2021/05/08 11:52:43;;;;;;;2.20;1.60;;;;;;;;;;4974070;28;20508;-73
2021/05/08 11:55:22;;;;;;;1.27;1.17;;;;;;;;;;4973798;28;20446;-72
2021/05/08 12:00:53;;;;;;;1.83;1.60;;;;;;;;;;4973965;28;20441;-72
2021/05/08 12:03:35;;;;;;;2.47;1.37;;;;;;;;;;4973984;28;20417;-74
2021/05/08 12:06:02;;;;;;;1.57;1.47;;;;;;;;;;4973400;28;20423;-72
2021/05/08 12:08:29;;;;;;;1.77;1.67;;;;;;;;;;4957952;28;20474;-72
2021/05/08 12:10:58;;;;;;;1.63;1.23;;;;;;;;;;4954614;29;20412;-73
2021/05/08 12:16:28;;;;;;;1.77;1.33;;;;;;;;;;4954415;29;20487;-73
2021/05/08 12:19:00;;;;;;;1.40;0.83;;;;;;;;;;4954469;29;20459;-73
2021/05/08 12:21:30;;;;;;;3.10;1.40;;;;;;;;;;4954160;29;20420;-73
2021/05/08 12:24:00;;;;;;;1.80;1.07;;;;;;;;;;4953962;29;20542;-74
2021/05/08 12:26:30;;;;;;;1.97;1.50;;;;;;;;;;4954144;29;20438;-72
2021/05/08 12:32:00;;;;;;;1.70;1.23;;;;;;;;;;4954482;29;20587;-72
2021/05/08 12:34:29;;;;;;;1.30;1.10;;;;;;;;;;4953910;29;20426;-72
2021/05/08 12:37:03;;;;;;;1.33;1.23;;;;;;;;;;4953765;29;20471;-72
2021/05/08 12:39:30;;;;;;;1.20;1.10;;;;;;;;;;4954127;29;20424;-72
2021/05/08 12:41:58;;;;;;;1.33;1.23;;;;;;;;;;4953624;29;20462;-73
2021/05/08 12:47:37;;;;;;;1.20;1.10;;;;;;;;;;4953989;29;20423;-73
2021/05/08 12:50:05;;;;;;;1.80;1.07;;;;;;;;;;4968307;28;20490;-73
2021/05/08 12:52:36;;;;;;;3.53;1.23;;;;;;;;;;4953699;29;20416;-73
2021/05/08 12:55:06;;;;;;;1.27;1.17;;;;;;;;;;4953747;29;20956;-72
2021/05/08 13:03:43;;;;;;;1.00;0.90;;;;;;;;;;4953861;29;20406;-73
2021/05/08 13:06:22;;;;;;;2.83;1.60;;;;;;;;;;4953657;29;20422;-72
2021/05/08 13:08:53;;;;;;;1.70;1.20;;;;;;;;;;4971279;28;20556;-72
2021/05/08 13:11:31;;;;;;;1.33;1.17;;;;;;;;;;4973059;28;20454;-71
2021/05/08 13:14:20;;;;;;;0.90;0.90;;;;;;;;;;4972847;28;20756;-72
2021/05/08 13:16:54;;;;;;;0.83;0.83;;;;;;;;;;4972206;28;20465;-73
2021/05/08 13:19:22;;;;;;;2.70;1.33;;;;;;;;;;4973024;28;20444;-73
2021/05/08 13:21:52;;;;;;;0.90;0.70;;;;;;;;;;4972599;28;20801;-74
2021/05/08 13:24:29;;;;;;;2.50;1.63;;;;;;;;;;4972296;28;20427;-73
2021/05/08 13:26:56;;;;;;;1.43;1.00;;;;;;;;;;4972668;28;20880;-74
2021/05/08 13:29:23;;;;;;;0.90;0.90;;;;;;;;;;4972663;28;20422;-73
2021/05/08 13:31:50;;;;;;;0.80;0.77;;;;;;;;;;4972575;28;20410;-75
2021/05/08 13:34:17;;;;;;;1.07;0.97;;;;;;;;;;4972768;28;20851;-76
2021/05/08 13:36:44;;;;;;;1.10;1.00;;;;;;;;;;4972386;28;20794;-74
2021/05/08 13:39:10;;;;;;;1.17;1.07;;;;;;;;;;4972767;28;20418;-74
2021/05/08 13:41:36;;;;;;;1.27;0.70;;;;;;;;;;4972695;28;20423;-74
2021/05/08 13:44:02;;;;;;;1.83;0.90;;;;;;;;;;4972557;28;20529;-73
2021/05/08 13:46:28;;;;;;;1.53;0.93;;;;;;;;;;4972609;28;20426;-75
2021/05/08 13:48:54;;;;;;;0.73;0.70;;;;;;;;;;4972588;28;20427;-75
2021/05/08 13:51:20;;;;;;;1.40;1.30;;;;;;;;;;4970819;28;20993;-75
2021/05/08 13:53:46;;;;;;;1.90;1.20;;;;;;;;;;4971793;28;20422;-73
2021/05/08 13:56:12;;;;;;;1.83;1.00;;;;;;;;;;4971107;28;20505;-74
2021/05/08 13:58:38;;;;;;;1.17;1.00;;;;;;;;;;4972320;28;20461;-73
2021/05/08 14:01:04;;;;;;;1.30;1.20;;;;;;;;;;4972490;28;20905;-75
2021/05/08 14:03:30;;;;;;;1.70;0.97;;;;;;;;;;4972322;28;20410;-75
2021/05/08 14:05:56;;;;;;;3.00;1.10;;;;;;;;;;4972284;28;20398;-76
2021/05/08 14:08:22;;;;;;;2.13;0.90;;;;;;;;;;4971745;28;20458;-75
2021/05/08 14:10:48;;;;;;;1.30;1.20;;;;;;;;;;4971674;28;20562;-76
2021/05/08 14:13:14;;;;;;;1.30;1.00;;;;;;;;;;4974245;28;20441;-74
2021/05/08 14:15:40;;;;;;;0.93;0.73;;;;;;;;;;4975133;28;20501;-76
2021/05/08 14:18:06;;;;;;;1.10;0.70;;;;;;;;;;4975042;28;20842;-74
2021/05/08 14:20:32;;;;;;;0.90;0.80;;;;;;;;;;4975391;28;20419;-74
2021/05/08 14:22:58;;;;;;;2.07;1.20;;;;;;;;;;4975056;28;20517;-74
2021/05/08 14:25:24;;;;;;;0.70;0.70;;;;;;;;;;4974828;28;20451;-76
2021/05/08 14:27:50;;;;;;;1.07;0.97;;;;;;;;;;4974165;28;20439;-74
2021/05/08 14:33:19;;;;;;;5.80;1.10;;;;;;;;;;4974697;28;20510;-77
2021/05/08 14:35:45;;;;;;;1.10;0.90;;;;;;;;;;4973480;28;20435;-73
2021/05/08 14:38:11;;;;;;;0.83;0.80;;;;;;;;;;4974426;28;20470;-73
2021/05/08 14:40:37;;;;;;;2.00;0.90;;;;;;;;;;4973958;28;20446;-73
2021/05/08 14:43:03;;;;;;;1.57;1.17;;;;;;;;;;4974484;28;20506;-75
2021/05/08 14:48:33;;;;;;;1.50;0.70;;;;;;;;;;4974321;28;20489;-77
2021/05/08 14:50:59;;;;;;;0.77;0.70;;;;;;;;;;4974296;28;20423;-75
2021/05/08 14:53:25;;;;;;;1.17;0.73;;;;;;;;;;4974472;28;20497;-74
2021/05/08 14:55:51;;;;;;;1.07;0.80;;;;;;;;;;4974674;28;20419;-76
2021/05/08 14:58:16;;;;;;;0.93;0.93;;;;;;;;;;4974371;28;20476;-75
2021/05/08 15:03:46;;;;;;;0.70;0.70;;;;;;;;;;4974386;28;20422;-75
2021/05/08 15:06:12;;;;;;;1.57;1.17;;;;;;;;;;4973980;28;20481;-77
2021/05/08 15:08:39;;;;;;;3.07;0.73;;;;;;;;;;4974371;28;20470;-77
2021/05/08 15:11:05;;;;;;;1.47;1.33;;;;;;;;;;4974585;28;20485;-77
2021/05/08 15:13:31;;;;;;;2.23;2.00;;;;;;;;;;4974632;28;20414;-75
2021/05/08 15:19:01;;;;;;;0.80;0.70;;;;;;;;;;4974469;28;20552;-76
2021/05/08 15:21:27;;;;;;;0.93;0.83;;;;;;;;;;4974185;28;20430;-77
2021/05/08 15:23:55;;;;;;;2.60;1.17;;;;;;;;;;4973792;28;20411;-76
2021/05/08 15:26:21;;;;;;;0.90;0.80;;;;;;;;;;4974178;28;20973;-76
2021/05/08 15:28:46;;;;;;;1.07;0.90;;;;;;;;;;4973943;28;20423;-76
2021/05/08 15:34:16;;;;;;;1.27;1.00;;;;;;;;;;4974076;28;20421;-75
2021/05/08 15:36:43;;;;;;;1.77;1.27;;;;;;;;;;4974054;28;20587;-76
2021/05/08 15:39:09;;;;;;;2.97;0.93;;;;;;;;;;4973118;28;20852;-76
2021/05/08 15:41:36;;;;;;;1.33;1.10;;;;;;;;;;4973462;28;20442;-76
2021/05/08 15:44:03;;;;;;;1.00;1.00;;;;;;;;;;4973750;28;20470;-75
2021/05/08 15:46:29;;;;;;;1.53;1.37;;;;;;;;;;4973309;28;20414;-74
2021/05/08 15:48:55;;;;;;;1.20;1.10;;;;;;;;;;4973038;28;20924;-76
2021/05/08 15:51:21;;;;;;;1.37;1.20;;;;;;;;;;4973418;28;20918;-74
2021/05/08 15:53:48;;;;;;;1.40;1.30;;;;;;;;;;4973181;28;20418;-75
2021/05/08 15:56:14;;;;;;;1.50;1.03;;;;;;;;;;4973262;28;20415;-75
2021/05/08 15:58:40;;;;;;;0.83;0.83;;;;;;;;;;4973130;28;20473;-76
2021/05/08 16:04:09;;;;;;;0.97;0.87;;;;;;;;;;4973322;28;20473;-76
2021/05/08 16:06:35;;;;;;;1.80;1.63;;;;;;;;;;4978902;28;20882;-76
2021/05/08 16:09:01;;;;;;;8.00;7.20;;;;;;;;;;4974616;28;20507;-72
2021/05/08 16:11:27;;;;;;;1.73;1.57;;;;;;;;;;4972923;28;20523;-72
2021/05/08 16:13:53;;;;;;;2.80;1.43;;;;;;;;;;4972786;28;20410;-72
2021/05/08 16:19:23;;;;;;;3.20;1.30;;;;;;;;;;4972633;28;20461;-73
2021/05/08 16:21:48;;;;;;;1.30;1.03;;;;;;;;;;4972415;28;20411;-73
2021/05/08 16:24:15;;;;;;;1.67;0.83;;;;;;;;;;4972926;28;20805;-74
2021/05/08 16:26:41;;;;;;;0.93;0.90;;;;;;;;;;4972530;28;20419;-76
2021/05/08 16:29:08;;;;;;;1.30;0.87;;;;;;;;;;4972991;28;20411;-76
2021/05/08 16:34:37;;;;;;;2.30;1.10;;;;;;;;;;4971992;28;20769;-76
2021/05/08 16:37:03;;;;;;;1.07;1.00;;;;;;;;;;4970795;28;20996;-76
2021/05/08 16:39:29;;;;;;;2.10;1.40;;;;;;;;;;4972182;28;20461;-77
2021/05/08 16:41:55;;;;;;;1.70;1.57;;;;;;;;;;4972702;28;20434;-78
2021/05/08 16:44:21;;;;;;;3.30;3.10;;;;;;;;;;4972473;28;20942;-75
2021/05/08 16:46:47;;;;;;;2.10;1.90;;;;;;;;;;4972624;28;20509;-76
2021/05/08 16:49:13;;;;;;;1.73;1.60;;;;;;;;;;4972515;28;20434;-77